sensor_id;sensor_type;location;lat;lon;timestamp;temperature;humidity
41471;DHT22;27211;51.220;5.308;2023-04-09T01:34:10;10.50;99.90
41471;DHT22;27211;51.220;5.308;2023-04-09T01:36:57;10.60;99.90
41471;DHT22;27211;51.220;5.308;2023-04-09T01:39:42;10.50;99.90
41471;DHT22;27211;51.220;5.308;2023-04-09T01:42:29;10.50;99.90
41471;DHT22;27211;51.220;5.308;2023-04-09T01:45:15;10.70;99.90
41471;DHT22;27211;51.220;5.308;2023-04-09T01:48:01;10.60;99.90
41471;DHT22;27211;51.220;5.308;2023-04-09T01:50:47;10.90;99.90
41471;DHT22;27211;51.220;5.308;2023-04-09T01:53:33;10.90;99.90
41471;DHT22;27211;51.220;5.308;2023-04-09T01:56:19;10.70;99.90
41471;DHT22;27211;51.220;5.308;2023-04-09T01:59:05;10.70;99.90
41471;DHT22;27211;51.220;5.308;2023-04-09T02:01:53;10.70;99.90
41471;DHT22;27211;51.220;5.308;2023-04-09T02:04:40;10.60;99.90
41471;DHT22;27211;51.220;5.308;2023-04-09T02:07:48;10.50;99.90
41471;DHT22;27211;51.220;5.308;2023-04-09T02:10:12;10.50;99.90
41471;DHT22;27211;51.220;5.308;2023-04-09T02:12:58;10.40;99.90
41471;DHT22;27211;51.220;5.308;2023-04-09T02:15:44;10.30;99.90
41471;DHT22;27211;51.220;5.308;2023-04-09T02:18:30;10.20;99.90
41471;DHT22;27211;51.220;5.308;2023-04-09T02:21:16;10.10;99.90
41471;DHT22;27211;51.220;5.308;2023-04-09T02:24:02;10.00;99.90
41471;DHT22;27211;51.220;5.308;2023-04-09T02:26:47;9.90;99.90
41471;DHT22;27211;51.220;5.308;2023-04-09T02:29:33;9.90;99.90
41471;DHT22;27211;51.220;5.308;2023-04-09T02:32:20;9.80;99.90
41471;DHT22;27211;51.220;5.308;2023-04-09T02:35:07;9.70;99.90
41471;DHT22;27211;51.220;5.308;2023-04-09T02:37:53;9.60;99.90
41471;DHT22;27211;51.220;5.308;2023-04-09T02:40:40;9.50;99.90
41471;DHT22;27211;51.220;5.308;2023-04-09T02:43:36;9.40;99.90
41471;DHT22;27211;51.220;5.308;2023-04-09T02:46:22;9.30;99.90
41471;DHT22;27211;51.220;5.308;2023-04-09T02:49:09;9.20;99.90
41471;DHT22;27211;51.220;5.308;2023-04-09T02:51:56;9.20;99.90
41471;DHT22;27211;51.220;5.308;2023-04-09T02:54:44;9.00;99.90
41471;DHT22;27211;51.220;5.308;2023-04-09T02:57:30;8.90;99.90
41471;DHT22;27211;51.220;5.308;2023-04-09T03:00:16;8.80;99.90
41471;DHT22;27211;51.220;5.308;2023-04-09T03:03:02;8.80;99.90
41471;DHT22;27211;51.220;5.308;2023-04-09T03:05:48;8.70;99.90
41471;DHT22;27211;51.220;5.308;2023-04-09T03:08:34;8.70;99.90
41471;DHT22;27211;51.220;5.308;2023-04-09T03:11:20;8.60;99.90
41471;DHT22;27211;51.220;5.308;2023-04-09T03:14:06;8.50;99.90
41471;DHT22;27211;51.220;5.308;2023-04-09T03:16:52;8.50;99.90
41471;DHT22;27211;51.220;5.308;2023-04-09T03:19:38;8.30;99.90
41471;DHT22;27211;51.220;5.308;2023-04-09T03:22:24;8.40;99.90
41471;DHT22;27211;51.220;5.308;2023-04-09T03:25:10;8.30;99.90
41471;DHT22;27211;51.220;5.308;2023-04-09T03:27:56;8.40;99.90
41471;DHT22;27211;51.220;5.308;2023-04-09T03:30:42;8.30;99.90
41471;DHT22;27211;51.220;5.308;2023-04-09T03:33:29;8.20;99.90
41471;DHT22;27211;51.220;5.308;2023-04-09T03:36:15;8.20;99.90
41471;DHT22;27211;51.220;5.308;2023-04-09T03:39:01;8.10;99.90
41471;DHT22;27211;51.220;5.308;2023-04-09T03:41:46;8.00;99.90
41471;DHT22;27211;51.220;5.308;2023-04-09T03:44:32;7.90;99.90
41471;DHT22;27211;51.220;5.308;2023-04-09T03:47:18;7.90;99.90
41471;DHT22;27211;51.220;5.308;2023-04-09T03:50:05;7.90;99.90
41471;DHT22;27211;51.220;5.308;2023-04-09T03:52:50;7.90;99.90
41471;DHT22;27211;51.220;5.308;2023-04-09T03:55:39;7.90;99.90
41471;DHT22;27211;51.220;5.308;2023-04-09T03:58:57;7.90;99.90
41471;DHT22;27211;51.220;5.308;2023-04-09T04:01:46;7.90;99.90
41471;DHT22;27211;51.220;5.308;2023-04-09T04:04:33;8.00;99.90
41471;DHT22;27211;51.220;5.308;2023-04-09T04:07:19;7.90;99.90
41471;DHT22;27211;51.220;5.308;2023-04-09T04:10:07;7.80;99.90
41471;DHT22;27211;51.220;5.308;2023-04-09T04:12:53;7.80;99.90
41471;DHT22;27211;51.220;5.308;2023-04-09T04:15:40;7.80;99.90
41471;DHT22;27211;51.220;5.308;2023-04-09T04:18:26;7.80;99.90
41471;DHT22;27211;51.220;5.308;2023-04-09T04:21:12;7.80;99.90
41471;DHT22;27211;51.220;5.308;2023-04-09T04:23:58;7.80;99.90
41471;DHT22;27211;51.220;5.308;2023-04-09T04:26:44;7.80;99.90
41471;DHT22;27211;51.220;5.308;2023-04-09T04:29:31;7.80;99.90
41471;DHT22;27211;51.220;5.308;2023-04-09T04:32:18;7.70;99.90
41471;DHT22;27211;51.220;5.308;2023-04-09T04:35:04;7.70;99.90
41471;DHT22;27211;51.220;5.308;2023-04-09T04:37:50;7.70;99.90
41471;DHT22;27211;51.220;5.308;2023-04-09T04:40:36;7.70;99.90
41471;DHT22;27211;51.220;5.308;2023-04-09T04:43:35;7.70;99.90
41471;DHT22;27211;51.220;5.308;2023-04-09T04:46:21;7.60;99.90
41471;DHT22;27211;51.220;5.308;2023-04-09T04:49:08;7.60;99.90
41471;DHT22;27211;51.220;5.308;2023-04-09T04:51:55;7.60;99.90
41471;DHT22;27211;51.220;5.308;2023-04-09T04:54:41;7.50;99.90
41471;DHT22;27211;51.220;5.308;2023-04-09T04:57:27;7.50;99.90
41471;DHT22;27211;51.220;5.308;2023-04-09T05:00:13;7.40;99.90
41471;DHT22;27211;51.220;5.308;2023-04-09T05:02:59;7.40;99.90
41471;DHT22;27211;51.220;5.308;2023-04-09T05:05:45;7.40;99.90
41471;DHT22;27211;51.220;5.308;2023-04-09T05:08:31;7.30;99.90
41471;DHT22;27211;51.220;5.308;2023-04-09T05:11:16;7.30;99.90
41471;DHT22;27211;51.220;5.308;2023-04-09T05:14:03;7.30;99.90
41471;DHT22;27211;51.220;5.308;2023-04-09T05:16:49;7.30;99.90
41471;DHT22;27211;51.220;5.308;2023-04-09T05:19:35;7.30;99.90
41471;DHT22;27211;51.220;5.308;2023-04-09T05:22:22;7.30;99.90
41471;DHT22;27211;51.220;5.308;2023-04-09T05:25:07;7.30;99.90
41471;DHT22;27211;51.220;5.308;2023-04-09T05:27:53;7.30;99.90
41471;DHT22;27211;51.220;5.308;2023-04-09T05:30:44;7.50;99.90
41471;DHT22;27211;51.220;5.308;2023-04-09T05:33:27;7.50;99.90
41471;DHT22;27211;51.220;5.308;2023-04-09T05:36:14;7.70;99.90
41471;DHT22;27211;51.220;5.308;2023-04-09T05:38:58;7.70;99.90
41471;DHT22;27211;51.220;5.308;2023-04-09T05:41:44;7.80;99.90
41471;DHT22;27211;51.220;5.308;2023-04-09T05:44:30;7.90;99.90
41471;DHT22;27211;51.220;5.308;2023-04-09T05:47:16;7.90;99.90
41471;DHT22;27211;51.220;5.308;2023-04-09T05:50:02;7.90;99.90
41471;DHT22;27211;51.220;5.308;2023-04-09T05:52:48;8.00;99.90
41471;DHT22;27211;51.220;5.308;2023-04-09T05:55:34;8.20;99.90
41471;DHT22;27211;51.220;5.308;2023-04-09T05:58:19;8.40;99.90
41471;DHT22;27211;51.220;5.308;2023-04-09T06:01:06;8.60;99.90
41471;DHT22;27211;51.220;5.308;2023-04-09T06:03:52;9.00;99.90
41471;DHT22;27211;51.220;5.308;2023-04-09T06:06:38;9.30;99.90
41471;DHT22;27211;51.220;5.308;2023-04-09T06:09:24;9.60;99.90
41471;DHT22;27211;51.220;5.308;2023-04-09T06:12:11;9.80;99.90
41471;DHT22;27211;51.220;5.308;2023-04-09T06:14:57;9.80;99.90
41471;DHT22;27211;51.220;5.308;2023-04-09T06:17:43;9.90;99.90
41471;DHT22;27211;51.220;5.308;2023-04-09T06:20:29;10.10;99.90
41471;DHT22;27211;51.220;5.308;2023-04-09T06:23:15;10.00;99.90
41471;DHT22;27211;51.220;5.308;2023-04-09T06:26:01;10.40;99.90
41471;DHT22;27211;51.220;5.308;2023-04-09T06:28:47;11.20;99.90
41471;DHT22;27211;51.220;5.308;2023-04-09T06:31:33;11.30;99.90
41471;DHT22;27211;51.220;5.308;2023-04-09T06:34:19;11.30;99.90
41471;DHT22;27211;51.220;5.308;2023-04-09T06:37:05;11.00;99.90
41471;DHT22;27211;51.220;5.308;2023-04-09T06:39:51;11.10;99.90
41471;DHT22;27211;51.220;5.308;2023-04-09T06:42:38;11.40;99.90
41471;DHT22;27211;51.220;5.308;2023-04-09T06:45:24;11.70;99.90
41471;DHT22;27211;51.220;5.308;2023-04-09T06:48:10;12.50;99.90
41471;DHT22;27211;51.220;5.308;2023-04-09T06:50:56;12.60;99.90
41471;DHT22;27211;51.220;5.308;2023-04-09T06:53:42;12.50;99.90
41471;DHT22;27211;51.220;5.308;2023-04-09T06:56:27;12.30;99.90
41471;DHT22;27211;51.220;5.308;2023-04-09T06:59:14;12.30;99.90
41471;DHT22;27211;51.220;5.308;2023-04-09T07:02:00;12.50;99.90
41471;DHT22;27211;51.220;5.308;2023-04-09T07:04:46;12.40;99.90
41471;DHT22;27211;51.220;5.308;2023-04-09T07:08:04;13.10;99.90
41471;DHT22;27211;51.220;5.308;2023-04-09T07:10:50;13.50;99.90
41471;DHT22;27211;51.220;5.308;2023-04-09T07:13:36;13.40;99.90
41471;DHT22;27211;51.220;5.308;2023-04-09T07:16:23;13.70;99.90
41471;DHT22;27211;51.220;5.308;2023-04-09T07:19:10;13.90;99.90
41471;DHT22;27211;51.220;5.308;2023-04-09T07:21:57;14.20;99.90
